Time;durP1;ratioP1;P1;durP2;ratioP2;P2;SDS_P1;SDS_P2;PMS_P1;PMS_P2;Temp;Humidity;BMP_temperature;BMP_pressure;BME280_temperature;BME280_humidity;BME280_pressure;Samples;Min_cycle;Max_cycle;Signal;HPM_P1;HPM_P2
2022/01/29 00:00:48;;;;;;;12.90;5.53;;;1.20;99.90;;;;;;5062771;28;20498;-66
2022/01/29 00:03:14;;;;;;;8.43;4.30;;;1.20;99.90;;;;;;5071787;28;20974;-66
2022/01/29 00:05:39;;;;;;;15.20;4.87;;;1.10;99.90;;;;;;5053935;28;20234;-66
2022/01/29 00:08:05;;;;;;;17.30;5.67;;;1.10;99.90;;;;;;5065872;28;20181;-66
2022/01/29 00:10:31;;;;;;;10.83;4.37;;;1.10;99.90;;;;;;5051852;28;20699;-66
2022/01/29 00:12:57;;;;;;;13.17;5.37;;;1.10;99.90;;;;;;5065812;28;20629;-66
2022/01/29 00:15:23;;;;;;;12.63;4.60;;;1.00;99.90;;;;;;5066833;28;20426;-67
2022/01/29 00:17:49;;;;;;;10.40;4.70;;;1.00;99.90;;;;;;5072865;28;20431;-66
2022/01/29 00:20:15;;;;;;;17.00;5.50;;;1.00;99.90;;;;;;5067410;28;20212;-67
2022/01/29 00:22:41;;;;;;;8.83;4.07;;;1.00;99.90;;;;;;5059116;28;20193;-67
2022/01/29 00:25:10;;;;;;;20.73;5.50;;;1.00;99.90;;;;;;5067274;28;20250;-66
2022/01/29 00:27:36;;;;;;;10.67;5.50;;;1.00;99.90;;;;;;5063506;28;20415;-66
2022/01/29 00:30:08;;;;;;;11.90;4.40;;;1.00;99.90;;;;;;5065385;28;20431;-67
2022/01/29 00:32:34;;;;;;;14.00;5.67;;;1.10;99.90;;;;;;5058837;28;20419;-66
2022/01/29 00:35:00;;;;;;;6.10;3.67;;;1.10;99.90;;;;;;5064460;28;20469;-67
2022/01/29 00:37:26;;;;;;;15.73;5.30;;;1.10;99.90;;;;;;5060928;28;20458;-65
2022/01/29 00:39:52;;;;;;;12.33;5.17;;;1.00;99.90;;;;;;5065008;28;20244;-67
2022/01/29 00:42:18;;;;;;;9.80;4.40;;;1.00;99.90;;;;;;5061955;28;20177;-68
2022/01/29 00:44:44;;;;;;;9.40;4.63;;;1.00;99.90;;;;;;5067286;28;20199;-67
2022/01/29 00:47:10;;;;;;;8.30;4.37;;;1.00;99.90;;;;;;5067424;28;20628;-67
2022/01/29 00:49:36;;;;;;;7.87;3.97;;;1.00;99.90;;;;;;5053612;28;20538;-68
2022/01/29 00:52:02;;;;;;;10.70;4.97;;;1.00;99.90;;;;;;5055690;28;20408;-67
2022/01/29 00:54:28;;;;;;;9.90;4.70;;;1.00;99.90;;;;;;5055665;28;20188;-67
2022/01/29 00:56:53;;;;;;;12.20;5.07;;;0.90;99.90;;;;;;5059130;28;20439;-67
2022/01/29 00:59:19;;;;;;;8.03;3.97;;;0.90;99.90;;;;;;5062176;28;20177;-67
2022/01/29 01:01:45;;;;;;;12.17;3.93;;;1.00;99.90;;;;;;5063277;28;20205;-67
2022/01/29 01:04:10;;;;;;;10.40;4.10;;;0.90;99.90;;;;;;5066644;28;20199;-67
2022/01/29 01:06:36;;;;;;;10.23;5.20;;;0.90;99.90;;;;;;5069522;28;20216;-67
2022/01/29 01:09:02;;;;;;;7.30;3.90;;;0.80;99.90;;;;;;5064837;28;20557;-67
2022/01/29 01:11:27;;;;;;;10.00;3.80;;;0.80;99.90;;;;;;5067351;28;20188;-67
2022/01/29 01:13:53;;;;;;;11.90;4.47;;;0.90;99.90;;;;;;5067297;28;20189;-67
2022/01/29 01:16:19;;;;;;;11.40;4.93;;;0.90;99.90;;;;;;5062221;28;20193;-67
2022/01/29 01:18:44;;;;;;;6.17;3.83;;;0.80;99.90;;;;;;5065509;28;20181;-67
2022/01/29 01:21:10;;;;;;;6.23;3.50;;;0.80;99.90;;;;;;5061736;28;20222;-67
2022/01/29 01:23:35;;;;;;;4.50;2.80;;;0.80;99.90;;;;;;5058877;28;20181;-67
2022/01/29 01:26:02;;;;;;;9.47;3.30;;;0.80;99.90;;;;;;5068145;28;20191;-67
2022/01/29 01:28:28;;;;;;;6.57;3.30;;;0.80;99.90;;;;;;5070193;28;20177;-67
2022/01/29 01:30:53;;;;;;;4.67;3.10;;;0.80;99.90;;;;;;5069212;28;20430;-67
2022/01/29 01:33:19;;;;;;;8.90;3.20;;;0.80;99.90;;;;;;5064975;28;20423;-66
2022/01/29 01:35:52;;;;;;;4.97;3.10;;;0.80;99.90;;;;;;5064297;28;20186;-66
2022/01/29 01:38:32;;;;;;;4.13;2.27;;;0.90;99.90;;;;;;5066427;28;20192;-67
2022/01/29 01:41:03;;;;;;;5.33;2.30;;;0.90;99.90;;;;;;5066994;28;21069;-67
2022/01/29 01:43:28;;;;;;;7.93;3.07;;;0.90;99.90;;;;;;5064588;28;20431;-67
2022/01/29 01:45:54;;;;;;;9.93;2.93;;;0.90;99.90;;;;;;5069861;28;20994;-67
2022/01/29 01:48:20;;;;;;;5.20;2.77;;;1.00;99.90;;;;;;5069956;28;20267;-67
2022/01/29 01:50:47;;;;;;;8.50;2.90;;;1.00;99.90;;;;;;5062351;28;20194;-67
2022/01/29 01:53:13;;;;;;;6.30;3.13;;;1.00;99.90;;;;;;5063790;28;20222;-67
2022/01/29 01:55:39;;;;;;;13.00;3.60;;;1.10;99.90;;;;;;5068713;28;20518;-67
2022/01/29 01:58:05;;;;;;;6.50;3.13;;;1.10;99.90;;;;;;5068863;28;20469;-67
2022/01/29 02:00:31;;;;;;;13.93;3.43;;;1.20;99.90;;;;;;5063850;28;21265;-67
2022/01/29 02:02:57;;;;;;;7.33;3.17;;;1.00;99.90;;;;;;5068281;28;20469;-67
2022/01/29 02:05:23;;;;;;;8.23;3.90;;;0.90;99.90;;;;;;5063535;28;20431;-67
2022/01/29 02:07:49;;;;;;;5.27;2.93;;;1.00;99.90;;;;;;5062598;28;20176;-67
2022/01/29 02:10:16;;;;;;;4.37;2.70;;;0.90;99.90;;;;;;5066591;28;20204;-67
2022/01/29 02:12:58;;;;;;;6.03;3.70;;;0.90;99.90;;;;;;5066270;28;20181;-67
2022/01/29 02:15:25;;;;;;;11.37;2.63;;;1.00;99.90;;;;;;5074678;28;20510;-67
2022/01/29 02:17:51;;;;;;;6.63;2.77;;;1.00;99.90;;;;;;5067904;28;20817;-67
2022/01/29 02:20:20;;;;;;;6.10;2.60;;;1.00;99.90;;;;;;5064261;28;20459;-67
2022/01/29 02:22:45;;;;;;;14.33;3.17;;;1.00;99.90;;;;;;5068562;28;20450;-67
2022/01/29 02:25:43;;;;;;;7.13;3.03;;;1.10;99.90;;;;;;5069574;28;20441;-67
2022/01/29 02:28:12;;;;;;;3.73;1.80;;;1.00;99.90;;;;;;5064750;28;20203;-67
2022/01/29 02:30:40;;;;;;;5.93;2.57;;;1.10;99.90;;;;;;5060547;28;20470;-67
2022/01/29 02:33:11;;;;;;;6.40;2.90;;;1.10;99.90;;;;;;5065097;28;20444;-67
2022/01/29 02:35:42;;;;;;;5.10;2.77;;;1.10;99.90;;;;;;5066486;28;20941;-67
2022/01/29 02:38:09;;;;;;;7.30;2.67;;;1.10;99.90;;;;;;5062906;28;20423;-67
2022/01/29 02:40:41;;;;;;;8.50;3.20;;;1.10;99.90;;;;;;5063821;28;20551;-67
2022/01/29 02:43:11;;;;;;;5.37;2.43;;;1.00;99.90;;;;;;5066051;28;20592;-67
2022/01/29 02:45:37;;;;;;;6.83;2.60;;;1.00;99.90;;;;;;5066430;28;20418;-67
2022/01/29 02:48:03;;;;;;;11.27;3.27;;;1.00;99.90;;;;;;5059503;28;20431;-67
2022/01/29 02:50:28;;;;;;;4.90;2.27;;;1.00;99.90;;;;;;5059777;28;20268;-67
2022/01/29 02:52:54;;;;;;;4.20;2.40;;;1.00;99.90;;;;;;5067653;28;20188;-67
2022/01/29 02:55:20;;;;;;;3.80;1.63;;;1.00;99.90;;;;;;5065938;28;20235;-67
2022/01/29 02:57:45;;;;;;;5.70;1.67;;;1.00;99.90;;;;;;5065406;28;20229;-67
2022/01/29 03:00:11;;;;;;;9.10;2.50;;;1.00;99.90;;;;;;5061795;28;20198;-67
2022/01/29 03:02:37;;;;;;;12.13;3.20;;;1.00;99.90;;;;;;5067472;28;20203;-67
2022/01/29 03:05:03;;;;;;;4.80;2.87;;;1.00;99.90;;;;;;5061167;28;20967;-68
2022/01/29 03:07:29;;;;;;;6.97;2.27;;;1.00;99.90;;;;;;5061163;28;20183;-67
2022/01/29 03:09:55;;;;;;;5.07;2.47;;;1.00;99.90;;;;;;5066383;28;20448;-67
2022/01/29 03:12:20;;;;;;;3.23;2.07;;;1.10;99.90;;;;;;5060488;28;20457;-67
2022/01/29 03:14:46;;;;;;;3.20;1.60;;;1.00;99.90;;;;;;5062762;28;20276;-67
2022/01/29 03:17:12;;;;;;;4.77;2.30;;;0.90;99.90;;;;;;5065101;28;20350;-67
2022/01/29 03:19:37;;;;;;;5.57;2.27;;;0.90;99.90;;;;;;5064184;28;20222;-67
2022/01/29 03:22:03;;;;;;;5.87;2.47;;;0.90;99.90;;;;;;5065094;28;20181;-67
2022/01/29 03:24:29;;;;;;;8.20;2.13;;;0.90;99.90;;;;;;5067788;28;20303;-67
2022/01/29 03:26:54;;;;;;;5.80;2.57;;;0.90;99.90;;;;;;5066996;28;20185;-67
2022/01/29 03:29:20;;;;;;;4.80;2.37;;;0.90;99.90;;;;;;5070290;28;20181;-67
2022/01/29 03:31:45;;;;;;;4.53;2.60;;;1.00;99.90;;;;;;5066716;28;21080;-67
2022/01/29 03:34:11;;;;;;;6.40;2.60;;;0.90;99.90;;;;;;5070274;28;20189;-67
2022/01/29 03:36:37;;;;;;;3.90;2.37;;;1.00;99.90;;;;;;5057711;28;20263;-67
2022/01/29 03:39:03;;;;;;;7.47;2.87;;;0.90;99.90;;;;;;5066541;28;20652;-67
2022/01/29 03:41:30;;;;;;;2.07;1.47;;;1.00;99.90;;;;;;5064974;28;20212;-67
2022/01/29 03:44:00;;;;;;;5.10;2.67;;;1.00;99.90;;;;;;5067651;28;20427;-67
2022/01/29 03:46:26;;;;;;;2.70;1.83;;;0.90;99.90;;;;;;5068694;28;20413;-67
2022/01/29 03:48:52;;;;;;;5.10;2.13;;;1.00;99.90;;;;;;5067402;28;21062;-67
2022/01/29 03:51:17;;;;;;;6.03;1.87;;;1.00;99.90;;;;;;5065861;28;20667;-67
2022/01/29 03:53:43;;;;;;;4.50;1.67;;;1.00;99.90;;;;;;5063495;28;20189;-67
2022/01/29 03:56:09;;;;;;;4.50;1.83;;;1.00;99.90;;;;;;5066723;28;20196;-68
2022/01/29 03:58:34;;;;;;;3.40;2.00;;;1.00;99.90;;;;;;5066213;28;20195;-67
2022/01/29 04:01:00;;;;;;;4.30;1.90;;;1.00;99.90;;;;;;5064520;28;20406;-67
2022/01/29 04:03:25;;;;;;;3.20;1.67;;;1.00;99.90;;;;;;5058386;28;20182;-68
2022/01/29 04:05:51;;;;;;;3.20;1.70;;;1.00;99.90;;;;;;5052952;28;20193;-68
2022/01/29 04:08:18;;;;;;;4.07;1.70;;;1.00;99.90;;;;;;5063688;28;20185;-68
2022/01/29 04:10:44;;;;;;;2.77;1.70;;;1.00;99.90;;;;;;5061515;28;20264;-68
2022/01/29 04:13:12;;;;;;;3.23;1.60;;;1.10;99.90;;;;;;5058867;28;20415;-67
2022/01/29 04:15:38;;;;;;;3.03;1.13;;;1.00;99.90;;;;;;5067106;28;20458;-67
2022/01/29 04:18:03;;;;;;;4.60;2.60;;;1.10;99.90;;;;;;5066520;28;20883;-67
2022/01/29 04:20:29;;;;;;;3.70;1.57;;;1.10;99.90;;;;;;5066989;28;21295;-67
2022/01/29 04:22:55;;;;;;;6.00;2.17;;;1.10;99.90;;;;;;5063160;28;20742;-67
2022/01/29 04:25:21;;;;;;;7.00;1.40;;;1.10;99.90;;;;;;5066760;28;20173;-66
2022/01/29 04:27:48;;;;;;;6.97;2.10;;;1.10;99.90;;;;;;5065613;28;20191;-67
2022/01/29 04:30:29;;;;;;;2.07;1.40;;;1.10;99.90;;;;;;5066083;28;20188;-67
2022/01/29 04:33:03;;;;;;;3.87;2.03;;;1.10;99.90;;;;;;5058391;28;20506;-67
2022/01/29 04:35:29;;;;;;;5.00;1.73;;;1.10;99.90;;;;;;5065440;28;20433;-67
2022/01/29 04:37:55;;;;;;;5.30;2.27;;;1.20;99.90;;;;;;5062489;28;20430;-67
2022/01/29 04:40:21;;;;;;;5.10;1.70;;;1.10;99.90;;;;;;5068135;28;20462;-67
2022/01/29 04:42:47;;;;;;;1.90;1.40;;;1.10;99.90;;;;;;5067581;28;20677;-66
2022/01/29 04:45:14;;;;;;;5.63;1.50;;;1.10;99.90;;;;;;5067016;28;20431;-65
2022/01/29 04:47:39;;;;;;;7.00;2.50;;;1.10;99.90;;;;;;5067925;28;20177;-65
2022/01/29 04:50:06;;;;;;;2.97;1.37;;;1.00;99.90;;;;;;5070660;28;20419;-65
2022/01/29 04:52:31;;;;;;;4.50;1.40;;;1.00;99.90;;;;;;5066478;28;20181;-66
2022/01/29 04:54:57;;;;;;;3.53;1.50;;;1.10;99.90;;;;;;5063891;28;20958;-67
2022/01/29 04:57:23;;;;;;;3.93;1.70;;;1.10;99.90;;;;;;5068742;28;20316;-68
2022/01/29 04:59:49;;;;;;;6.50;2.53;;;1.00;99.90;;;;;;5059952;28;21069;-68
2022/01/29 05:02:15;;;;;;;4.50;2.10;;;1.00;99.90;;;;;;5063794;28;20178;-68
2022/01/29 05:04:40;;;;;;;2.90;1.57;;;1.00;99.90;;;;;;5065134;28;20208;-68
2022/01/29 05:07:06;;;;;;;6.17;2.17;;;0.90;99.90;;;;;;5066229;28;20181;-68
2022/01/29 05:09:31;;;;;;;6.70;2.27;;;0.90;99.90;;;;;;5071101;28;20268;-68
2022/01/29 05:12:00;;;;;;;3.77;1.83;;;1.00;99.90;;;;;;5061455;28;20235;-68
2022/01/29 05:14:39;;;;;;;4.03;2.23;;;1.00;99.90;;;;;;5067468;28;20541;-68
2022/01/29 05:27:45;;;;;;;3.93;1.80;;;1.10;99.90;;;;;;5066776;28;20423;-68
2022/01/29 05:30:11;;;;;;;5.20;1.67;;;1.10;99.90;;;;;;5062395;28;20423;-68
2022/01/29 05:32:37;;;;;;;3.80;1.83;;;1.10;99.90;;;;;;5067876;28;20655;-68
2022/01/29 05:35:02;;;;;;;5.33;2.30;;;1.10;99.90;;;;;;5069495;28;20220;-68
2022/01/29 05:37:28;;;;;;;6.53;2.10;;;1.10;99.90;;;;;;5066700;28;20193;-67
2022/01/29 05:39:54;;;;;;;11.50;2.83;;;1.10;99.90;;;;;;5067141;28;20246;-67
2022/01/29 05:42:19;;;;;;;2.90;1.50;;;1.20;99.90;;;;;;5064342;28;20185;-68
2022/01/29 05:44:45;;;;;;;2.70;1.40;;;1.10;99.90;;;;;;5064609;28;20268;-68
2022/01/29 05:47:11;;;;;;;6.13;2.23;;;1.20;99.90;;;;;;5063605;28;20181;-68
2022/01/29 05:49:36;;;;;;;3.00;1.17;;;1.30;99.90;;;;;;5061710;28;20264;-68
2022/01/29 05:52:02;;;;;;;3.40;1.37;;;1.30;99.90;;;;;;5064560;28;20189;-68
2022/01/29 05:54:28;;;;;;;4.23;1.60;;;1.30;99.90;;;;;;5065965;28;20193;-68
2022/01/29 05:56:53;;;;;;;4.30;2.10;;;1.20;99.90;;;;;;5063732;28;20275;-68
2022/01/29 05:59:19;;;;;;;3.50;1.63;;;1.20;99.90;;;;;;5068354;28;20208;-68
2022/01/29 06:01:44;;;;;;;4.10;1.83;;;1.20;99.90;;;;;;5065707;28;20213;-68
2022/01/29 06:04:10;;;;;;;3.43;1.70;;;1.20;99.90;;;;;;5065975;28;20579;-67
2022/01/29 06:06:36;;;;;;;4.20;1.90;;;1.30;99.90;;;;;;5064551;28;20770;-67
2022/01/29 06:09:04;;;;;;;3.77;1.70;;;1.30;99.90;;;;;;5064875;28;20185;-67
2022/01/29 06:11:31;;;;;;;3.80;1.93;;;1.30;99.90;;;;;;5065465;28;20189;-67
2022/01/29 06:13:57;;;;;;;4.13;1.80;;;1.30;99.90;;;;;;5065088;28;20937;-67
2022/01/29 06:16:22;;;;;;;5.50;2.33;;;1.30;99.90;;;;;;5066698;28;20423;-67
2022/01/29 06:18:48;;;;;;;4.90;1.37;;;1.30;99.90;;;;;;5067500;28;20189;-67
2022/01/29 06:21:14;;;;;;;4.03;1.50;;;1.30;99.90;;;;;;5066913;28;20205;-67
2022/01/29 06:23:40;;;;;;;2.13;1.33;;;1.30;99.90;;;;;;5068625;28;20184;-68
2022/01/29 06:26:09;;;;;;;4.40;1.73;;;1.30;99.90;;;;;;5068107;28;20427;-68
2022/01/29 06:28:35;;;;;;;3.37;1.67;;;1.30;99.90;;;;;;5067613;28;20538;-68
2022/01/29 06:31:02;;;;;;;3.20;1.67;;;1.30;99.90;;;;;;5061374;28;20950;-68
2022/01/29 06:33:28;;;;;;;3.17;1.70;;;1.40;99.90;;;;;;5066311;28;20431;-68
2022/01/29 06:35:54;;;;;;;6.73;2.00;;;1.40;99.90;;;;;;5065978;28;20499;-68
2022/01/29 06:38:20;;;;;;;2.70;1.63;;;1.40;99.90;;;;;;5065525;28;20430;-68
2022/01/29 06:40:45;;;;;;;6.40;2.47;;;1.40;99.90;;;;;;5057753;28;20293;-67
2022/01/29 06:43:11;;;;;;;3.70;1.77;;;1.40;99.90;;;;;;5064707;28;20802;-67
2022/01/29 06:45:39;;;;;;;5.10;2.27;;;1.40;99.90;;;;;;5063422;28;20243;-67
2022/01/29 06:48:05;;;;;;;3.57;2.10;;;1.40;99.90;;;;;;5062606;28;21159;-68
2022/01/29 06:50:31;;;;;;;4.77;2.03;;;1.40;99.90;;;;;;5062806;28;20442;-68
2022/01/29 06:52:57;;;;;;;2.40;1.70;;;1.40;99.90;;;;;;5061578;28;20905;-68
2022/01/29 06:55:23;;;;;;;2.53;1.70;;;1.60;99.90;;;;;;5066794;28;20238;-67
2022/01/29 06:57:48;;;;;;;7.10;2.17;;;1.50;99.90;;;;;;5062299;28;20713;-68
2022/01/29 07:00:15;;;;;;;5.57;2.30;;;1.50;99.90;;;;;;5067858;28;20474;-68
2022/01/29 07:02:41;;;;;;;5.93;2.30;;;1.50;99.90;;;;;;5064616;28;20425;-68
2022/01/29 07:05:09;;;;;;;3.30;2.10;;;1.50;99.90;;;;;;5068510;28;20771;-68
2022/01/29 07:07:35;;;;;;;4.17;1.87;;;1.50;99.90;;;;;;5067799;28;20264;-67
2022/01/29 07:10:01;;;;;;;3.97;2.33;;;1.50;99.90;;;;;;5072014;28;20494;-67
2022/01/29 07:12:27;;;;;;;9.40;2.57;;;1.50;99.90;;;;;;5063193;28;20517;-67
2022/01/29 07:14:53;;;;;;;5.37;2.90;;;1.50;99.90;;;;;;5079942;28;20192;-67
2022/01/29 07:17:22;;;;;;;3.87;2.00;;;1.50;99.90;;;;;;5071308;28;20589;-67
2022/01/29 07:19:52;;;;;;;5.10;1.80;;;1.50;99.90;;;;;;5053588;28;20838;-68
2022/01/29 07:22:21;;;;;;;3.87;1.87;;;1.50;99.90;;;;;;5066648;28;20447;-67
2022/01/29 07:24:47;;;;;;;3.60;1.70;;;1.60;99.90;;;;;;5068287;28;20423;-67
2022/01/29 07:27:13;;;;;;;6.13;2.40;;;1.60;99.90;;;;;;5060234;28;20473;-68
2022/01/29 07:29:39;;;;;;;3.97;1.90;;;1.50;99.90;;;;;;5055673;28;20189;-67
2022/01/29 07:32:05;;;;;;;3.97;2.20;;;1.50;99.90;;;;;;5067885;28;20442;-67
2022/01/29 07:34:31;;;;;;;3.40;1.90;;;1.50;99.90;;;;;;5062876;28;20189;-67
2022/01/29 07:36:57;;;;;;;3.70;2.00;;;1.60;99.90;;;;;;5060811;28;20436;-67
2022/01/29 07:39:24;;;;;;;5.57;2.83;;;1.60;99.90;;;;;;5065314;28;20266;-67
2022/01/29 07:41:50;;;;;;;12.67;2.50;;;1.60;99.90;;;;;;5064527;28;20990;-68
2022/01/29 07:44:18;;;;;;;4.13;2.03;;;1.60;99.90;;;;;;5059418;28;20482;-67
2022/01/29 07:46:44;;;;;;;9.63;2.43;;;1.70;99.90;;;;;;5067892;28;20449;-67
2022/01/29 07:49:09;;;;;;;5.17;2.43;;;1.70;99.90;;;;;;5065091;28;20435;-68
2022/01/29 07:51:36;;;;;;;7.30;2.00;;;1.80;99.90;;;;;;5061176;28;20468;-68
2022/01/29 07:54:02;;;;;;;4.93;2.33;;;1.90;99.90;;;;;;5067856;28;20189;-67
2022/01/29 07:56:27;;;;;;;4.50;1.93;;;1.90;99.90;;;;;;5065587;28;20923;-67
2022/01/29 07:58:53;;;;;;;6.10;1.87;;;2.00;99.90;;;;;;5066925;28;20189;-68
2022/01/29 08:01:19;;;;;;;5.43;2.20;;;2.00;99.90;;;;;;5065230;28;20294;-68
2022/01/29 08:03:48;;;;;;;2.83;2.00;;;2.00;99.90;;;;;;5064538;28;20208;-68
2022/01/29 08:06:15;;;;;;;7.83;2.73;;;2.10;99.90;;;;;;5065634;28;20185;-67
2022/01/29 08:08:41;;;;;;;4.87;2.27;;;2.00;99.90;;;;;;5065607;28;20438;-67
2022/01/29 08:11:08;;;;;;;3.27;1.70;;;2.00;99.90;;;;;;5061674;28;20874;-68
2022/01/29 08:13:34;;;;;;;12.23;3.10;;;2.00;99.90;;;;;;5066634;28;20649;-68
2022/01/29 08:16:00;;;;;;;5.53;2.17;;;1.90;99.90;;;;;;5061639;28;20497;-68
2022/01/29 08:18:26;;;;;;;6.20;3.27;;;1.90;99.90;;;;;;5063022;28;20439;-68
2022/01/29 08:20:52;;;;;;;8.40;2.80;;;1.90;99.90;;;;;;5065994;28;20473;-68
2022/01/29 08:23:17;;;;;;;5.63;2.17;;;1.90;99.90;;;;;;5067175;28;20538;-68
2022/01/29 08:25:43;;;;;;;7.10;2.03;;;1.90;99.90;;;;;;5060226;28;20633;-67
2022/01/29 08:28:09;;;;;;;5.87;3.20;;;1.90;99.90;;;;;;5061094;28;20626;-67
2022/01/29 08:30:34;;;;;;;13.63;3.00;;;2.10;99.90;;;;;;5064446;28;20204;-67
2022/01/29 08:33:00;;;;;;;6.83;3.50;;;2.10;99.90;;;;;;5059846;28;20185;-67
2022/01/29 08:35:26;;;;;;;7.50;3.30;;;2.20;99.90;;;;;;5063491;28;20207;-68
2022/01/29 08:37:53;;;;;;;13.87;4.73;;;2.40;99.90;;;;;;5060067;28;20195;-67
2022/01/29 08:40:19;;;;;;;9.80;3.33;;;2.50;99.90;;;;;;5055820;28;20474;-67
2022/01/29 08:42:45;;;;;;;5.70;2.70;;;2.60;99.90;;;;;;5056855;28;20879;-67
2022/01/29 08:45:13;;;;;;;6.27;2.77;;;2.60;99.90;;;;;;5066127;28;20710;-67
2022/01/29 08:47:39;;;;;;;6.73;3.17;;;2.60;99.90;;;;;;5054597;28;20186;-67
2022/01/29 08:50:06;;;;;;;7.60;3.77;;;2.60;99.90;;;;;;5063184;28;20519;-67
2022/01/29 08:52:32;;;;;;;6.20;2.40;;;2.60;99.90;;;;;;5055233;28;20416;-67
2022/01/29 08:54:57;;;;;;;7.80;3.43;;;2.60;99.90;;;;;;5065522;28;20465;-67
2022/01/29 08:57:23;;;;;;;5.83;3.03;;;2.50;99.90;;;;;;5066561;28;20840;-67
2022/01/29 08:59:49;;;;;;;6.90;3.43;;;2.60;99.90;;;;;;5060599;28;20619;-67
2022/01/29 09:02:15;;;;;;;8.33;2.90;;;2.60;99.90;;;;;;5055948;28;20427;-67
2022/01/29 09:04:41;;;;;;;5.40;2.87;;;2.50;99.90;;;;;;5069921;28;20218;-67
2022/01/29 09:07:08;;;;;;;7.37;3.80;;;2.50;99.90;;;;;;5066184;28;20430;-67
2022/01/29 09:09:33;;;;;;;7.67;3.47;;;2.70;99.90;;;;;;5062834;28;20182;-67
2022/01/29 09:12:01;;;;;;;9.10;4.00;;;2.70;99.90;;;;;;5057841;28;20462;-67
2022/01/29 09:14:26;;;;;;;8.63;3.57;;;2.80;99.90;;;;;;5058401;28;20554;-67
2022/01/29 09:16:52;;;;;;;6.20;2.80;;;2.70;99.90;;;;;;5054847;28;20419;-67
2022/01/29 09:19:18;;;;;;;10.73;3.03;;;2.70;99.90;;;;;;5052354;28;20209;-67
2022/01/29 09:21:43;;;;;;;6.87;2.90;;;2.80;99.90;;;;;;5064503;28;20212;-67
2022/01/29 09:24:09;;;;;;;7.60;3.50;;;2.90;99.90;;;;;;5063620;28;20200;-67
2022/01/29 09:26:34;;;;;;;6.73;2.60;;;2.90;99.90;;;;;;5070082;28;20185;-67
2022/01/29 09:29:00;;;;;;;4.57;2.50;;;3.10;99.90;;;;;;5065909;28;20193;-66
2022/01/29 09:31:26;;;;;;;15.50;2.50;;;3.20;99.90;;;;;;5072033;28;20188;-66
2022/01/29 09:33:51;;;;;;;6.17;3.07;;;3.30;99.90;;;;;;5065041;28;20610;-66
2022/01/29 09:36:17;;;;;;;6.17;2.90;;;3.40;99.90;;;;;;5056306;28;20194;-67
2022/01/29 09:38:43;;;;;;;5.87;2.57;;;3.60;99.90;;;;;;5066143;28;20244;-66
2022/01/29 09:41:09;;;;;;;4.70;2.90;;;3.60;99.90;;;;;;5063240;28;20240;-67
2022/01/29 09:43:35;;;;;;;4.03;2.30;;;3.60;99.90;;;;;;5070319;28;20192;-67
2022/01/29 09:46:01;;;;;;;6.77;3.07;;;3.60;99.90;;;;;;5070135;28;20721;-67
2022/01/29 09:48:29;;;;;;;4.07;2.20;;;3.50;99.90;;;;;;5057226;28;20269;-67
2022/01/29 09:50:58;;;;;;;7.23;3.70;;;3.50;99.90;;;;;;5069039;28;20423;-68
2022/01/29 09:53:25;;;;;;;4.50;2.53;;;3.70;99.90;;;;;;5062083;28;20411;-67
2022/01/29 09:55:51;;;;;;;7.33;3.10;;;3.70;99.90;;;;;;5069134;28;20427;-67
2022/01/29 09:58:17;;;;;;;5.60;2.50;;;3.70;99.90;;;;;;5056535;28;20435;-66
2022/01/29 10:00:42;;;;;;;8.47;3.60;;;3.70;99.90;;;;;;5061007;28;20733;-67
2022/01/29 10:03:11;;;;;;;6.10;3.27;;;3.80;99.90;;;;;;5073177;28;20216;-69
2022/01/29 10:05:37;;;;;;;8.30;3.67;;;3.80;99.90;;;;;;5067516;28;20185;-67
2022/01/29 10:08:04;;;;;;;7.13;3.47;;;3.90;99.90;;;;;;5065654;28;20896;-67
2022/01/29 10:10:36;;;;;;;7.10;2.70;;;4.00;99.90;;;;;;5071254;28;20544;-67
2022/01/29 10:13:32;;;;;;;6.73;3.53;;;4.20;99.90;;;;;;5075093;28;20422;-66
2022/01/29 10:16:12;;;;;;;5.93;3.07;;;4.20;99.90;;;;;;5065347;28;21371;-68
2022/01/29 10:18:42;;;;;;;5.30;3.03;;;4.10;99.90;;;;;;5068870;28;20435;-67
2022/01/29 10:21:13;;;;;;;4.70;2.90;;;4.20;99.90;;;;;;5068364;28;20470;-66
2022/01/29 10:23:41;;;;;;;6.80;3.03;;;4.50;99.90;;;;;;5069106;28;20542;-66
2022/01/29 10:26:10;;;;;;;5.30;3.07;;;4.60;99.90;;;;;;5068700;28;20423;-67
2022/01/29 10:28:36;;;;;;;15.40;3.47;;;4.60;99.90;;;;;;5069183;28;20918;-67
2022/01/29 10:31:07;;;;;;;7.53;3.17;;;4.70;99.90;;;;;;5066828;28;20438;-67
2022/01/29 10:33:41;;;;;;;6.13;3.07;;;4.90;99.90;;;;;;5062993;28;20427;-68
2022/01/29 10:36:09;;;;;;;6.43;2.80;;;4.90;99.90;;;;;;5068115;28;21279;-68
2022/01/29 10:38:40;;;;;;;5.80;2.80;;;5.00;99.90;;;;;;5071423;28;20454;-68
2022/01/29 10:41:12;;;;;;;12.40;2.80;;;5.00;99.90;;;;;;5065875;28;20550;-67
2022/01/29 10:44:00;;;;;;;3.50;1.93;;;5.10;99.90;;;;;;5063925;28;20431;-68
2022/01/29 10:46:30;;;;;;;4.93;2.67;;;5.10;99.90;;;;;;5045326;28;20478;-68
2022/01/29 10:49:00;;;;;;;7.60;2.70;;;5.00;99.90;;;;;;5057877;28;20426;-68
2022/01/29 10:51:26;;;;;;;6.37;3.17;;;5.00;99.90;;;;;;5064942;28;20419;-68
2022/01/29 10:53:55;;;;;;;7.70;3.30;;;4.90;99.90;;;;;;5063041;28;21275;-67
2022/01/29 10:56:22;;;;;;;6.43;3.07;;;4.90;99.90;;;;;;5057946;28;20439;-68
2022/01/29 10:58:50;;;;;;;4.77;1.80;;;4.90;99.90;;;;;;5066134;28;20434;-68
2022/01/29 11:01:23;;;;;;;3.20;1.60;;;4.60;99.90;;;;;;5060335;28;21029;-68
2022/01/29 11:03:52;;;;;;;2.60;1.17;;;4.70;99.90;;;;;;5061277;28;20455;-68
2022/01/29 11:06:21;;;;;;;3.37;1.50;;;4.70;99.90;;;;;;5056658;28;20424;-68
2022/01/29 11:08:48;;;;;;;2.90;1.30;;;4.50;99.90;;;;;;5066860;28;20424;-67
2022/01/29 11:11:15;;;;;;;6.33;1.80;;;4.40;99.90;;;;;;5067748;28;20438;-67
2022/01/29 11:13:43;;;;;;;3.93;1.57;;;4.50;99.90;;;;;;5070249;28;20460;-67
2022/01/29 11:16:11;;;;;;;2.53;1.80;;;4.50;99.90;;;;;;5064525;28;20465;-68
2022/01/29 11:18:37;;;;;;;3.50;1.30;;;4.40;99.90;;;;;;5065964;28;20442;-68
2022/01/29 11:21:03;;;;;;;2.37;1.00;;;4.30;99.90;;;;;;5066139;28;20554;-68
2022/01/29 11:23:31;;;;;;;2.70;1.10;;;4.40;99.90;;;;;;5067228;28;21065;-68
2022/01/29 11:25:59;;;;;;;4.00;1.87;;;4.50;99.90;;;;;;5065631;28;20461;-68
2022/01/29 11:28:27;;;;;;;2.80;1.63;;;4.70;99.90;;;;;;5068208;28;20433;-68
2022/01/29 11:31:14;;;;;;;2.60;1.17;;;4.80;99.90;;;;;;5065682;28;20462;-68
2022/01/29 11:33:58;;;;;;;5.10;2.77;;;4.80;99.90;;;;;;5064249;28;20419;-67
2022/01/29 11:36:48;;;;;;;3.60;1.33;;;4.60;99.90;;;;;;5068243;28;20427;-68
2022/01/29 11:39:20;;;;;;;3.10;1.40;;;4.70;99.90;;;;;;5069129;28;20423;-68
2022/01/29 11:41:46;;;;;;;3.53;2.07;;;5.10;99.90;;;;;;5066448;28;20478;-68
2022/01/29 11:44:27;;;;;;;7.23;2.17;;;5.10;99.90;;;;;;5064108;28;20434;-68
2022/01/29 11:46:53;;;;;;;4.17;1.43;;;5.20;99.90;;;;;;5069321;28;20419;-69
2022/01/29 11:49:21;;;;;;;4.17;1.73;;;5.10;99.90;;;;;;5065754;28;20431;-68
2022/01/29 11:51:48;;;;;;;4.10;1.77;;;5.10;99.90;;;;;;5067065;28;20185;-68
2022/01/29 11:54:20;;;;;;;6.47;2.67;;;5.10;99.90;;;;;;5063606;28;20472;-67
2022/01/29 11:56:47;;;;;;;6.20;2.07;;;5.10;99.90;;;;;;5060020;28;20440;-68
2022/01/29 11:59:27;;;;;;;2.47;1.30;;;5.00;99.90;;;;;;5062685;28;20498;-68
2022/01/29 12:02:28;;;;;;;7.30;2.80;;;4.90;99.90;;;;;;5072211;28;20571;-68
2022/01/29 12:04:56;;;;;;;2.50;1.60;;;5.10;99.90;;;;;;5059137;28;21057;-68
2022/01/29 12:07:30;;;;;;;3.63;1.57;;;5.10;99.90;;;;;;5062606;28;20417;-67
2022/01/29 12:10:02;;;;;;;3.00;1.47;;;4.90;99.90;;;;;;5062492;28;20409;-67
2022/01/29 12:12:28;;;;;;;4.60;1.73;;;4.70;99.90;;;;;;5065812;28;20431;-67
2022/01/29 12:15:18;;;;;;;5.27;1.70;;;4.80;99.90;;;;;;5067248;28;20477;-68
2022/01/29 12:17:50;;;;;;;3.00;1.70;;;4.70;99.90;;;;;;5062580;28;20773;-68
2022/01/29 12:20:19;;;;;;;2.73;1.20;;;4.70;99.90;;;;;;5061287;28;20997;-68
2022/01/29 12:22:45;;;;;;;4.93;1.30;;;4.70;99.90;;;;;;5066805;28;20455;-68
2022/01/29 12:25:29;;;;;;;5.27;1.33;;;4.70;99.90;;;;;;5058257;28;20424;-68
2022/01/29 12:27:56;;;;;;;3.47;1.80;;;4.60;99.90;;;;;;5066637;28;20490;-68
2022/01/29 12:30:25;;;;;;;2.33;0.90;;;4.60;99.90;;;;;;5062036;28;20419;-68
2022/01/29 12:32:59;;;;;;;3.73;1.30;;;4.60;99.90;;;;;;5067427;28;20438;-68
2022/01/29 12:35:37;;;;;;;2.60;1.37;;;4.60;99.90;;;;;;5068011;28;20776;-68
2022/01/29 12:38:06;;;;;;;4.60;1.40;;;4.50;99.90;;;;;;5064579;28;20427;-68
2022/01/29 12:40:38;;;;;;;2.77;1.27;;;4.50;99.90;;;;;;5058099;28;20478;-68
2022/01/29 12:43:19;;;;;;;3.10;1.50;;;4.30;99.90;;;;;;5064460;28;20697;-67
2022/01/29 12:45:44;;;;;;;4.33;1.63;;;4.30;99.90;;;;;;5061960;28;20415;-69
2022/01/29 12:48:11;;;;;;;3.37;1.60;;;4.30;99.90;;;;;;5062185;28;20473;-69
2022/01/29 12:50:39;;;;;;;3.27;1.33;;;4.30;99.90;;;;;;5054618;28;20228;-69
2022/01/29 12:53:14;;;;;;;6.53;1.97;;;4.50;99.90;;;;;;5066262;28;20430;-68
2022/01/29 12:55:40;;;;;;;3.30;1.57;;;4.50;99.90;;;;;;5068246;28;20521;-69
2022/01/29 12:58:06;;;;;;;6.37;1.60;;;4.60;99.90;;;;;;5070287;28;20539;-69
2022/01/29 13:00:34;;;;;;;2.83;1.40;;;4.60;99.90;;;;;;5058701;28;20231;-69
2022/01/29 13:03:09;;;;;;;2.93;1.30;;;4.70;99.90;;;;;;5066058;28;20192;-69
2022/01/29 13:05:41;;;;;;;11.40;1.57;;;4.60;99.90;;;;;;5070528;28;20426;-69
2022/01/29 13:08:07;;;;;;;2.97;1.00;;;4.50;99.90;;;;;;5070253;28;20440;-69